createdAt,value
2022-10-05T00:01:13.499Z,12.91
2022-10-05T00:06:16.853Z,12.83
2022-10-05T00:11:22.309Z,13.02
2022-10-05T00:16:24.207Z,13.09
2022-10-05T00:21:24.438Z,12.91
2022-10-05T00:26:26.392Z,12.70
2022-10-05T00:31:26.866Z,13.00
2022-10-05T00:36:37.613Z,12.79
2022-10-05T00:42:31.092Z,12.87
2022-10-05T00:47:55.653Z,12.73
2022-10-05T00:53:12.847Z,12.61
2022-10-05T00:58:49.412Z,12.28
2022-10-05T01:04:05.359Z,12.50
2022-10-05T01:09:15.731Z,12.34
2022-10-05T01:14:35.306Z,12.28
2022-10-05T01:19:56.326Z,12.53
2022-10-05T01:25:18.344Z,12.54
2022-10-05T01:30:20.400Z,12.23
2022-10-05T01:35:27.532Z,12.40
2022-10-05T01:40:40.525Z,12.42
2022-10-05T01:45:53.504Z,12.37
2022-10-05T01:51:41.860Z,12.25
2022-10-05T01:57:21.311Z,12.36
2022-10-05T02:02:21.945Z,12.06
2022-10-05T02:07:31.108Z,12.18
2022-10-05T02:12:33.975Z,12.21
2022-10-05T02:17:37.539Z,12.41
2022-10-05T02:22:42.258Z,12.05
2022-10-05T02:27:59.624Z,11.91
2022-10-05T02:33:07.987Z,11.91
2022-10-05T02:38:20.885Z,11.90
2022-10-05T02:43:21.790Z,12.00
2022-10-05T02:48:28.645Z,11.95
2022-10-05T02:53:59.575Z,11.64
2022-10-05T02:59:21.255Z,11.61
2022-10-05T03:04:40.128Z,11.83
2022-10-05T03:10:05.556Z,11.37
2022-10-05T03:15:41.350Z,11.51
2022-10-05T03:20:54.323Z,11.66
2022-10-05T03:26:15.938Z,11.39
2022-10-05T03:31:42.936Z,11.52
2022-10-05T03:37:00.279Z,11.27
2022-10-05T03:42:27.164Z,11.64
2022-10-05T03:47:40.316Z,11.30
2022-10-05T03:53:21.811Z,11.17
2022-10-05T03:58:34.133Z,11.35
2022-10-05T04:03:35.707Z,11.58
2022-10-05T04:08:54.590Z,11.03
2022-10-05T04:13:58.717Z,11.18
2022-10-05T04:19:11.879Z,10.92
2022-10-05T04:24:15.217Z,10.87
2022-10-05T04:29:48.194Z,11.11
2022-10-05T04:35:07.082Z,11.28
2022-10-05T04:40:36.114Z,10.80
2022-10-05T04:46:08.830Z,10.93
2022-10-05T04:51:37.968Z,10.84
2022-10-05T04:56:42.303Z,11.06
2022-10-05T05:02:04.479Z,10.76
2022-10-05T05:07:23.930Z,11.09
2022-10-05T05:12:53.146Z,10.79
2022-10-05T05:18:01.009Z,11.01
2022-10-05T05:23:14.198Z,11.12
2022-10-05T05:28:31.516Z,11.27
2022-10-05T05:33:49.485Z,11.25
2022-10-05T05:39:28.450Z,11.49
2022-10-05T05:44:38.527Z,10.62
2022-10-05T05:49:45.292Z,11.59
2022-10-05T05:54:57.684Z,11.77
2022-10-05T06:00:15.307Z,11.94
2022-10-05T06:05:35.954Z,11.65
2022-10-05T06:10:52.994Z,11.94
2022-10-05T06:16:25.397Z,12.41
2022-10-05T06:21:36.634Z,12.04
2022-10-05T06:26:56.023Z,12.57
2022-10-05T06:32:06.879Z,12.64
2022-10-05T06:37:33.554Z,12.57
2022-10-05T06:43:22.010Z,12.71
2022-10-05T06:48:45.106Z,12.69
2022-10-05T06:54:07.281Z,12.49
2022-10-05T06:59:26.870Z,12.74
2022-10-05T07:05:02.402Z,13.09
2022-10-05T07:10:14.829Z,13.08
2022-10-05T07:15:45.057Z,13.21
2022-10-05T07:21:00.785Z,13.02
2022-10-05T07:26:26.896Z,13.08
2022-10-05T07:31:42.360Z,13.22
2022-10-05T07:37:18.569Z,13.47
2022-10-05T07:42:28.642Z,13.82
2022-10-05T07:47:40.307Z,13.55
2022-10-05T07:52:46.418Z,13.87
2022-10-05T07:58:06.867Z,14.23
2022-10-05T08:03:47.422Z,14.00
2022-10-05T08:09:15.519Z,14.30
2022-10-05T08:14:25.189Z,14.53
2022-10-05T08:19:26.878Z,14.59
2022-10-05T08:24:45.531Z,14.72
2022-10-05T08:29:59.346Z,14.92
2022-10-05T08:35:21.220Z,15.09
2022-10-05T08:40:22.218Z,15.26
2022-10-05T08:45:54.448Z,15.49
2022-10-05T08:51:14.605Z,15.65
2022-10-05T08:56:19.867Z,15.76
2022-10-05T09:01:35.731Z,15.60
2022-10-05T09:07:01.296Z,15.99
2022-10-05T09:12:14.404Z,16.27
2022-10-05T09:17:26.334Z,16.04
2022-10-05T09:22:30.576Z,16.54
2022-10-05T09:27:40.247Z,16.26
2022-10-05T09:33:06.880Z,16.68
2022-10-05T09:38:19.916Z,16.82
2022-10-05T09:43:42.435Z,16.96
2022-10-05T09:48:43.080Z,17.04
2022-10-05T09:53:55.862Z,17.17
2022-10-05T09:59:07.609Z,17.23
2022-10-05T10:04:15.415Z,17.26
2022-10-05T10:09:41.714Z,17.18
2022-10-05T10:15:02.960Z,17.65
2022-10-05T10:20:20.244Z,17.67
2022-10-05T10:25:42.543Z,17.42
2022-10-05T10:31:30.773Z,17.57
2022-10-05T10:36:49.628Z,17.96
2022-10-05T10:42:26.368Z,18.04
2022-10-05T10:47:53.407Z,18.17
2022-10-05T10:53:35.264Z,18.33
2022-10-05T10:58:52.604Z,18.44
2022-10-05T11:04:21.706Z,18.49
2022-10-05T11:09:28.774Z,18.42
2022-10-05T11:14:59.932Z,18.41
2022-10-05T11:20:13.103Z,18.45
2022-10-05T11:25:33.367Z,18.86
2022-10-05T11:30:59.902Z,18.77
2022-10-05T11:36:46.898Z,18.47
2022-10-05T11:42:18.529Z,18.87
2022-10-05T11:47:40.848Z,18.91
2022-10-05T11:53:06.262Z,19.07
2022-10-05T11:58:15.755Z,19.28
2022-10-05T12:03:24.463Z,19.28
2022-10-05T12:08:26.808Z,19.28
2022-10-05T12:13:52.495Z,18.94
2022-10-05T12:19:14.830Z,19.10
2022-10-05T12:24:30.239Z,19.04
2022-10-05T12:29:56.947Z,19.31
2022-10-05T12:35:36.674Z,19.67
2022-10-05T12:40:46.522Z,19.68
2022-10-05T12:45:57.614Z,19.87
2022-10-05T12:51:27.136Z,19.58
2022-10-05T12:56:48.009Z,19.75
2022-10-05T13:02:12.572Z,19.77
2022-10-05T13:07:39.459Z,20.04
2022-10-05T13:12:50.046Z,20.22
2022-10-05T13:18:18.212Z,19.99
2022-10-05T13:23:35.214Z,20.46
2022-10-05T13:28:43.810Z,20.43
2022-10-05T13:33:51.457Z,20.32
2022-10-05T13:38:58.696Z,20.40
2022-10-05T13:44:27.015Z,20.41
2022-10-05T13:49:33.889Z,20.41
2022-10-05T13:55:07.035Z,20.58
2022-10-05T14:00:26.262Z,20.43
2022-10-05T14:05:27.827Z,21.32
2022-10-05T14:10:43.769Z,22.95
2022-10-05T14:15:42.521Z,24.52
2022-10-05T14:20:43.563Z,23.48
2022-10-05T14:25:54.141Z,22.28
2022-10-05T14:31:34.894Z,22.07
2022-10-05T14:36:35.764Z,21.00
2022-10-05T14:41:39.765Z,19.82
2022-10-05T14:46:54.932Z,19.78
2022-10-05T14:51:55.447Z,19.23
2022-10-05T14:57:19.475Z,18.98
2022-10-05T15:02:42.419Z,18.77
2022-10-05T15:07:50.142Z,18.81
2022-10-05T15:12:53.991Z,18.52
2022-10-05T15:18:01.210Z,18.43
2022-10-05T15:23:08.747Z,18.81
2022-10-05T15:28:36.826Z,18.66
2022-10-05T15:33:41.141Z,18.46
2022-10-05T15:39:00.694Z,18.49
2022-10-05T15:44:08.447Z,18.51
2022-10-05T15:49:33.985Z,18.42
2022-10-05T15:54:57.020Z,18.11
2022-10-05T16:00:17.167Z,17.91
2022-10-05T16:06:01.220Z,17.88
2022-10-05T16:10:59.937Z,17.57
2022-10-05T16:16:25.525Z,17.58
2022-10-05T16:21:54.323Z,17.30
2022-10-05T16:32:57.327Z,16.93
2022-10-05T16:38:17.918Z,17.01
2022-10-05T16:43:55.461Z,17.05
2022-10-05T16:49:20.467Z,16.90
2022-10-05T16:55:03.355Z,16.81
2022-10-05T17:00:41.401Z,16.74
2022-10-05T17:05:44.960Z,16.62
2022-10-05T17:11:03.485Z,16.36
2022-10-05T17:16:29.569Z,16.48
2022-10-05T17:21:47.985Z,16.43
2022-10-05T17:26:46.555Z,16.36
2022-10-05T17:32:18.442Z,16.11
2022-10-05T17:37:19.405Z,16.27
2022-10-05T17:42:26.607Z,16.19
2022-10-05T17:48:00.891Z,16.10
2022-10-05T17:53:43.352Z,15.82
2022-10-05T17:58:45.820Z,15.88
2022-10-05T18:03:55.790Z,15.60
2022-10-05T18:09:21.735Z,15.73
2022-10-05T18:14:25.022Z,15.45
2022-10-05T18:19:25.377Z,15.32
2022-10-05T18:24:30.238Z,15.29
2022-10-05T18:30:05.108Z,15.49
2022-10-05T18:35:20.058Z,15.23
2022-10-05T18:40:39.307Z,15.42
2022-10-05T18:46:01.992Z,15.44
2022-10-05T18:51:18.326Z,15.33
2022-10-05T18:56:24.856Z,15.12
2022-10-05T19:01:49.918Z,14.71
2022-10-05T19:07:18.203Z,14.67
2022-10-05T19:12:47.514Z,14.86
2022-10-05T19:18:07.503Z,14.71
2022-10-05T19:23:30.067Z,14.78
2022-10-05T19:28:37.782Z,14.61
2022-10-05T19:33:55.314Z,14.69
2022-10-05T19:39:43.092Z,14.63
2022-10-05T19:45:26.460Z,14.35
2022-10-05T19:50:24.530Z,14.53
2022-10-05T19:55:32.740Z,14.26
2022-10-05T20:00:48.011Z,13.89
2022-10-05T20:05:46.243Z,14.16
2022-10-05T20:16:40.867Z,14.05
2022-10-05T20:21:46.319Z,14.10
2022-10-05T20:27:17.823Z,13.84
2022-10-05T20:32:34.477Z,13.71
2022-10-05T20:38:04.179Z,13.72
2022-10-05T20:43:22.901Z,13.41
2022-10-05T20:48:53.697Z,13.55
2022-10-05T20:54:10.425Z,13.70
2022-10-05T20:59:13.270Z,13.28
2022-10-05T21:04:11.135Z,13.53
2022-10-05T21:09:15.934Z,13.21
2022-10-05T21:14:16.622Z,13.02
2022-10-05T21:20:15.827Z,13.33
2022-10-05T21:25:16.014Z,13.08
2022-10-05T21:30:19.136Z,13.47
2022-10-05T21:35:24.960Z,13.29
2022-10-05T21:40:28.533Z,13.20
2022-10-05T21:45:27.625Z,13.22
2022-10-05T21:50:26.762Z,12.99
2022-10-05T21:55:26.139Z,12.76
2022-10-05T22:00:27.869Z,12.93
2022-10-05T22:05:42.988Z,12.84
2022-10-05T22:10:43.657Z,12.56
2022-10-05T22:15:44.663Z,12.62
2022-10-05T22:20:43.233Z,12.41
2022-10-05T22:25:43.476Z,12.52
2022-10-05T22:30:45.869Z,12.66
2022-10-05T22:35:50.998Z,12.84
2022-10-05T22:40:52.960Z,12.97
2022-10-05T22:45:54.080Z,12.78
2022-10-05T22:50:52.887Z,12.85
2022-10-05T22:55:55.080Z,12.38
2022-10-05T23:00:58.506Z,12.74
2022-10-05T23:06:05.166Z,12.44
2022-10-05T23:11:17.279Z,12.55
2022-10-05T23:16:21.769Z,12.69
2022-10-05T23:21:26.365Z,12.72
2022-10-05T23:26:28.604Z,12.49
2022-10-05T23:31:34.751Z,12.22
2022-10-05T23:36:34.151Z,12.17
2022-10-05T23:41:35.993Z,12.14
2022-10-05T23:46:40.344Z,12.26
2022-10-05T23:51:39.003Z,12.41
2022-10-05T23:56:43.248Z,12.44
